Time;durP1;ratioP1;P1;durP2;ratioP2;P2;SDS_P1;SDS_P2;PMS_P1;PMS_P2;Temp;Humidity;BMP_temperature;BMP_pressure;BME280_temperature;BME280_humidity;BME280_pressure;Samples;Min_cycle;Max_cycle;Signal;HPM_P1;HPM_P2
2022/09/13 00:02:25;;;;;;;3.03;2.83;;;22.70;65.40;;;;;;5022592;28;43498;-58
2022/09/13 00:04:53;;;;;;;2.92;2.72;;;22.70;65.40;;;;;;5021858;28;43780;-58
2022/09/13 00:07:20;;;;;;;3.67;3.38;;;22.70;65.40;;;;;;5022455;28;43482;-58
2022/09/13 00:09:48;;;;;;;3.40;3.10;;;22.70;65.40;;;;;;5021427;28;43431;-57
2022/09/13 00:12:15;;;;;;;3.05;2.85;;;22.70;65.40;;;;;;5022578;28;43474;-58
2022/09/13 00:14:43;;;;;;;3.15;2.90;;;22.70;65.50;;;;;;5021586;28;44763;-58
2022/09/13 00:17:10;;;;;;;3.35;3.10;;;22.70;65.50;;;;;;5019028;28;43826;-58
2022/09/13 00:19:38;;;;;;;3.20;2.95;;;22.70;65.50;;;;;;5021739;28;43397;-57
2022/09/13 00:22:05;;;;;;;3.15;2.90;;;22.70;65.50;;;;;;5020708;28;43688;-58
2022/09/13 00:24:33;;;;;;;2.72;2.53;;;22.70;65.60;;;;;;5019935;28;44810;-58
2022/09/13 00:27:01;;;;;;;3.15;2.95;;;22.70;65.50;;;;;;5022059;28;43657;-58
2022/09/13 00:29:28;;;;;;;3.22;2.97;;;22.70;65.60;;;;;;5022110;28;43390;-58
2022/09/13 00:31:56;;;;;;;3.00;2.80;;;22.70;65.60;;;;;;5021605;28;43467;-58
2022/09/13 00:34:24;;;;;;;3.00;2.80;;;22.70;65.70;;;;;;5022000;28;44927;-58
2022/09/13 00:36:51;;;;;;;3.28;2.78;;;22.70;65.60;;;;;;5021444;28;44042;-58
2022/09/13 00:39:19;;;;;;;2.95;2.70;;;22.60;65.70;;;;;;5021685;28;43332;-58
2022/09/13 00:41:46;;;;;;;3.13;2.92;;;22.60;65.70;;;;;;5021468;28;43435;-58
2022/09/13 00:44:54;;;;;;;3.20;3.00;;;22.60;65.70;;;;;;5022017;28;44707;-58
2022/09/13 00:47:51;;;;;;;2.90;2.70;;;22.60;65.70;;;;;;5034432;28;43351;-58
2022/09/13 00:50:37;;;;;;;2.90;2.70;;;22.60;65.70;;;;;;5042690;28;43456;-58
2022/09/13 00:53:18;;;;;;;3.15;2.95;;;22.60;65.80;;;;;;5020446;28;43488;-58
2022/09/13 00:55:49;;;;;;;;;;;22.60;65.80;;;;;;5025271;28;43793;-58
2022/09/13 00:58:28;;;;;;;3.30;3.00;;;22.60;65.90;;;;;;5026262;28;43425;-58
2022/09/13 01:00:58;;;;;;;3.00;2.80;;;22.60;66.00;;;;;;5024842;28;43923;-58
2022/09/13 01:03:29;;;;;;;2.92;2.72;;;22.60;66.00;;;;;;5025665;28;43507;-58
2022/09/13 01:06:03;;;;;;;3.13;2.88;;;22.60;65.90;;;;;;5023906;28;44033;-58
2022/09/13 01:08:31;;;;;;;3.00;2.80;;;22.60;65.90;;;;;;5025058;28;43994;-58
2022/09/13 01:11:00;;;;;;;3.28;3.00;;;22.60;66.60;;;;;;5024800;28;43378;-58
2022/09/13 01:13:34;;;;;;;2.90;2.70;;;22.60;66.00;;;;;;5024647;28;43585;-58
2022/09/13 01:16:01;;;;;;;3.10;2.90;;;22.60;66.00;;;;;;5023232;28;43698;-58
2022/09/13 01:18:29;;;;;;;2.90;2.70;;;22.60;66.00;;;;;;5023748;28;43477;-58
2022/09/13 01:21:05;;;;;;;2.90;2.70;;;22.60;66.00;;;;;;5024142;28;43941;-58
2022/09/13 01:23:54;;;;;;;2.95;2.63;;;22.60;66.10;;;;;;5025009;28;43471;-58
2022/09/13 01:26:49;;;;;;;2.83;2.63;;;22.60;66.00;;;;;;5057237;28;43947;-58
2022/09/13 01:29:44;;;;;;;2.60;2.40;;;22.50;66.00;;;;;;5024840;28;43726;-58
2022/09/13 01:32:39;;;;;;;2.63;2.42;;;22.60;66.10;;;;;;5023801;28;43425;-58
2022/09/13 01:35:14;;;;;;;2.78;2.58;;;22.50;66.10;;;;;;5024404;28;43422;-58
2022/09/13 01:38:29;;;;;;;2.88;2.60;;;22.50;66.10;;;;;;5014729;28;43793;-58
2022/09/13 01:41:41;;;;;;;3.10;2.90;;;22.50;66.10;;;;;;5020293;28;43667;-58
2022/09/13 01:44:11;;;;;;;2.85;2.65;;;22.50;66.10;;;;;;5014670;28;43384;-58
2022/09/13 01:47:01;;;;;;;2.80;2.60;;;22.50;66.20;;;;;;5024174;28;43415;-58
2022/09/13 01:49:50;;;;;;;2.60;2.47;;;22.50;66.20;;;;;;5017376;28;44713;-58
2022/09/13 01:52:46;;;;;;;2.80;2.60;;;22.50;66.10;;;;;;5024666;28;43589;-58
2022/09/13 01:55:32;;;;;;;2.55;2.35;;;22.50;66.10;;;;;;5023922;28;43414;-58
2022/09/13 01:58:09;;;;;;;2.70;2.50;;;22.50;66.10;;;;;;5025100;28;43433;-58
2022/09/13 02:00:47;;;;;;;2.58;2.38;;;22.50;66.00;;;;;;5024408;28;44803;-58
2022/09/13 02:03:20;;;;;;;2.20;2.10;;;22.50;66.10;;;;;;5010370;28;43518;-58
2022/09/13 02:05:57;;;;;;;2.10;2.00;;;22.50;66.10;;;;;;5023798;28;43924;-58
2022/09/13 02:08:34;;;;;;;2.50;2.30;;;22.50;66.10;;;;;;5024606;28;43421;-58
2022/09/13 02:11:14;;;;;;;2.25;2.15;;;22.50;66.00;;;;;;5023114;28;44853;-58
2022/09/13 02:14:00;;;;;;;2.10;2.00;;;22.50;66.10;;;;;;5024083;28;43719;-58
2022/09/13 02:16:34;;;;;;;2.00;1.90;;;22.50;66.70;;;;;;5019099;28;43389;-58
2022/09/13 02:19:09;;;;;;;2.10;2.00;;;22.50;66.00;;;;;;5020968;28;43476;-58
2022/09/13 02:21:42;;;;;;;2.17;2.08;;;22.50;66.60;;;;;;5023765;28;43824;-58
2022/09/13 02:24:18;;;;;;;1.83;1.73;;;22.50;65.90;;;;;;5023369;28;43417;-58
2022/09/13 02:26:50;;;;;;;1.90;1.80;;;22.50;65.90;;;;;;5023252;28;43401;-58
2022/09/13 02:29:20;;;;;;;1.92;1.83;;;22.50;66.00;;;;;;5024324;28;44032;-58
2022/09/13 02:32:02;;;;;;;2.00;1.90;;;22.40;65.90;;;;;;5022745;28;44684;-58
2022/09/13 02:34:41;;;;;;;1.70;1.60;;;22.50;65.80;;;;;;5022648;28;43689;-58
2022/09/13 02:37:10;;;;;;;1.70;1.60;;;22.50;65.80;;;;;;5023846;28;43441;-58
2022/09/13 02:39:48;;;;;;;1.80;1.70;;;22.40;65.80;;;;;;5023640;28;43550;-58
2022/09/13 02:42:29;;;;;;;1.77;1.67;;;22.40;65.80;;;;;;5023423;28;43766;-58
2022/09/13 02:44:59;;;;;;;;;;;22.40;65.80;;;;;;5023140;28;43763;-58
2022/09/13 02:47:26;;;;;;;1.90;1.80;;;22.40;65.80;;;;;;5023709;28;43910;-58
2022/09/13 02:50:02;;;;;;;1.80;1.70;;;22.40;65.90;;;;;;5023717;28;43406;-58
2022/09/13 02:52:54;;;;;;;1.77;1.67;;;22.40;65.90;;;;;;5020521;28;44838;-58
2022/09/13 02:55:30;;;;;;;1.60;1.50;;;22.40;65.90;;;;;;5023294;28;43420;-58
2022/09/13 02:58:05;;;;;;;1.70;1.60;;;22.40;65.90;;;;;;5024861;28;43958;-58
2022/09/13 03:00:33;;;;;;;2.17;2.08;;;22.40;65.90;;;;;;5022872;28;43499;-59
2022/09/13 03:03:04;;;;;;;1.58;1.48;;;22.40;65.90;;;;;;5023324;28;43603;-58
2022/09/13 03:05:32;;;;;;;1.90;1.67;;;22.40;65.80;;;;;;5022260;28;43424;-58
2022/09/13 03:08:00;;;;;;;1.75;1.65;;;22.40;65.90;;;;;;5022299;28;43369;-58
2022/09/13 03:10:41;;;;;;;1.50;1.50;;;22.40;65.90;;;;;;5023027;28;43476;-58
2022/09/13 03:13:20;;;;;;;1.35;1.30;;;22.40;65.90;;;;;;5022686;28;44807;-58
2022/09/13 03:15:51;;;;;;;1.60;1.50;;;22.40;65.90;;;;;;5022472;28;43436;-58
2022/09/13 03:18:37;;;;;;;1.60;1.50;;;22.40;65.90;;;;;;5019956;28;43442;-58
2022/09/13 03:21:15;;;;;;;1.40;1.30;;;22.40;65.80;;;;;;5015368;28;43467;-58
2022/09/13 03:23:49;;;;;;;1.70;1.60;;;22.40;65.80;;;;;;5022657;28;44697;-58
2022/09/13 03:26:35;;;;;;;1.42;1.33;;;22.40;65.90;;;;;;5022747;28;43449;-58
2022/09/13 03:29:28;;;;;;;1.55;1.45;;;22.40;65.80;;;;;;5023314;28;43545;-58
2022/09/13 03:31:58;;;;;;;1.33;1.30;;;22.40;65.90;;;;;;5021239;28;43471;-58
2022/09/13 03:34:50;;;;;;;1.65;1.55;;;22.40;65.90;;;;;;5022576;28;44091;-58
2022/09/13 03:37:26;;;;;;;1.20;1.10;;;22.40;65.90;;;;;;5022973;28;43464;-58
2022/09/13 03:40:00;;;;;;;1.30;1.20;;;22.40;65.90;;;;;;5022637;28;43447;-58
2022/09/13 03:42:38;;;;;;;1.40;1.30;;;22.40;65.90;;;;;;5021779;28;43912;-58
2022/09/13 03:45:08;;;;;;;1.35;1.35;;;22.40;65.90;;;;;;5022611;28;44922;-58
2022/09/13 03:47:37;;;;;;;1.50;1.40;;;22.40;65.90;;;;;;5022019;28;43404;-58
2022/09/13 03:50:07;;;;;;;1.20;1.20;;;22.40;65.90;;;;;;5022574;28;43512;-58
2022/09/13 03:52:36;;;;;;;1.33;1.23;;;22.40;65.90;;;;;;5022698;28;43411;-58
2022/09/13 03:55:03;;;;;;;1.50;1.40;;;22.40;65.90;;;;;;5021563;28;44978;-58
2022/09/13 03:57:31;;;;;;;2.33;1.50;;;22.40;65.90;;;;;;5024151;28;43507;-58
2022/09/13 03:59:59;;;;;;;1.27;1.20;;;22.30;65.90;;;;;;5022542;28;43387;-58
2022/09/13 04:02:27;;;;;;;1.40;1.30;;;22.40;65.90;;;;;;5021957;28;43585;-58
2022/09/13 04:04:55;;;;;;;1.08;1.05;;;22.30;65.90;;;;;;5020816;28;44995;-58
2022/09/13 04:07:24;;;;;;;1.38;1.27;;;22.30;65.90;;;;;;5022664;28;43970;-58
2022/09/13 04:09:51;;;;;;;1.13;1.13;;;22.30;65.90;;;;;;5021832;28;43763;-58
2022/09/13 04:12:19;;;;;;;0.93;0.93;;;22.30;65.90;;;;;;5022563;28;43470;-58
2022/09/13 04:14:47;;;;;;;1.30;1.20;;;22.30;65.90;;;;;;5021939;28;44048;-58
2022/09/13 04:17:14;;;;;;;1.33;1.23;;;22.30;65.90;;;;;;5022123;28;43433;-58
2022/09/13 04:19:44;;;;;;;1.10;1.10;;;22.30;65.90;;;;;;5021641;28;43398;-59
2022/09/13 04:22:12;;;;;;;1.27;1.17;;;22.30;65.90;;;;;;5022649;28;43602;-58
2022/09/13 04:24:40;;;;;;;1.27;1.17;;;22.30;66.00;;;;;;5021617;28;44768;-58
2022/09/13 04:27:07;;;;;;;1.15;1.10;;;22.30;66.00;;;;;;5022437;28;43435;-58
2022/09/13 04:29:34;;;;;;;1.00;1.00;;;22.30;66.00;;;;;;5022276;28;43455;-58
2022/09/13 04:32:02;;;;;;;1.23;1.13;;;22.30;66.00;;;;;;5020375;28;43593;-58
2022/09/13 04:34:29;;;;;;;1.35;1.25;;;22.30;65.90;;;;;;5021917;28;43768;-58
2022/09/13 04:36:57;;;;;;;1.00;1.00;;;22.30;66.00;;;;;;5019949;28;43476;-58
2022/09/13 04:39:24;;;;;;;1.38;1.13;;;22.30;66.00;;;;;;5022474;28;43513;-58
2022/09/13 04:41:53;;;;;;;1.10;1.10;;;22.30;66.00;;;;;;5021661;28;43490;-58
2022/09/13 04:44:23;;;;;;;0.98;0.98;;;22.30;66.00;;;;;;5021499;28;44639;-58
2022/09/13 04:46:50;;;;;;;1.17;1.10;;;22.30;66.00;;;;;;5020421;28;43968;-59
2022/09/13 04:49:19;;;;;;;1.10;1.10;;;22.30;66.00;;;;;;5019394;28;43388;-58
2022/09/13 04:51:47;;;;;;;1.00;1.00;;;22.30;66.00;;;;;;5019749;28;43672;-58
2022/09/13 04:54:14;;;;;;;1.05;1.00;;;22.30;66.60;;;;;;5021186;28;43917;-58
2022/09/13 04:56:46;;;;;;;1.10;0.90;;;22.30;66.00;;;;;;5021428;28;43376;-59
2022/09/13 04:59:13;;;;;;;0.90;0.90;;;22.30;66.00;;;;;;5023763;28;43445;-58
2022/09/13 05:01:41;;;;;;;1.08;1.08;;;22.20;66.00;;;;;;5022023;28;43494;-58
2022/09/13 05:04:09;;;;;;;0.98;0.90;;;22.30;66.10;;;;;;5021851;28;45449;-59
2022/09/13 05:06:40;;;;;;;0.93;0.93;;;22.20;66.00;;;;;;5020816;28;43487;-58
2022/09/13 05:09:12;;;;;;;1.17;1.17;;;22.20;66.00;;;;;;5022293;28;43404;-59
2022/09/13 05:11:40;;;;;;;0.93;0.93;;;22.30;66.00;;;;;;5021584;28;43531;-58
2022/09/13 05:14:10;;;;;;;1.10;1.00;;;22.30;66.00;;;;;;5053596;28;43929;-58
2022/09/13 05:16:37;;;;;;;1.15;0.90;;;22.30;66.00;;;;;;5021302;28;44081;-59
2022/09/13 05:19:04;;;;;;;1.52;1.10;;;22.20;66.00;;;;;;5019738;28;43450;-58
2022/09/13 05:21:32;;;;;;;1.08;1.05;;;22.30;66.10;;;;;;5021204;28;43614;-59
2022/09/13 05:24:01;;;;;;;1.17;1.08;;;22.20;66.00;;;;;;5021388;28;43768;-58
2022/09/13 05:26:30;;;;;;;1.50;1.13;;;22.20;66.00;;;;;;5019380;28;43694;-58
2022/09/13 05:28:58;;;;;;;0.80;0.80;;;22.30;66.10;;;;;;5021286;28;43418;-58
2022/09/13 05:31:33;;;;;;;1.00;0.93;;;22.30;66.00;;;;;;5021924;28;43494;-58
2022/09/13 05:34:09;;;;;;;1.33;0.98;;;22.30;66.10;;;;;;5024068;28;43852;-58
2022/09/13 05:36:38;;;;;;;1.65;0.80;;;22.20;66.10;;;;;;5024381;28;43750;-59
2022/09/13 05:39:10;;;;;;;1.20;1.10;;;22.30;66.10;;;;;;5024003;28;43541;-58
2022/09/13 05:41:58;;;;;;;1.13;1.00;;;22.30;66.10;;;;;;5022618;28;43581;-58
2022/09/13 05:44:26;;;;;;;0.90;0.90;;;22.20;66.10;;;;;;5024890;28;44721;-58
2022/09/13 05:46:53;;;;;;;0.95;0.95;;;22.20;66.10;;;;;;5024167;28;43403;-59
2022/09/13 05:49:21;;;;;;;0.98;0.90;;;22.20;66.10;;;;;;5024309;28;43423;-59
2022/09/13 05:51:48;;;;;;;0.95;0.93;;;22.20;66.70;;;;;;5016117;28;43471;-59
2022/09/13 05:54:16;;;;;;;0.93;0.93;;;22.20;66.10;;;;;;5023869;28;44790;-59
2022/09/13 05:56:43;;;;;;;1.20;0.98;;;22.20;66.20;;;;;;5020247;28;43403;-59
2022/09/13 05:59:13;;;;;;;0.80;0.80;;;22.30;66.20;;;;;;5025772;28;43461;-58
2022/09/13 06:01:40;;;;;;;1.67;0.98;;;22.20;66.10;;;;;;5021991;28;43467;-59
2022/09/13 06:04:08;;;;;;;0.80;0.80;;;22.30;66.10;;;;;;5022202;28;44666;-59
2022/09/13 06:06:35;;;;;;;1.02;0.90;;;22.20;66.10;;;;;;5020120;28;43450;-59
2022/09/13 06:09:05;;;;;;;0.85;0.80;;;22.30;66.10;;;;;;5022982;28;43381;-58
2022/09/13 06:11:32;;;;;;;0.90;0.90;;;22.30;66.10;;;;;;5015141;28;43497;-59
2022/09/13 06:14:00;;;;;;;0.80;0.73;;;22.30;66.10;;;;;;5022419;28;43810;-59
2022/09/13 06:16:27;;;;;;;0.80;0.80;;;22.30;66.10;;;;;;5021968;28;43700;-59
2022/09/13 06:18:57;;;;;;;1.20;0.88;;;22.20;66.00;;;;;;5019417;28;43407;-58
2022/09/13 06:21:25;;;;;;;1.92;1.10;;;22.20;66.10;;;;;;5022054;28;43501;-59
2022/09/13 06:23:55;;;;;;;1.15;0.85;;;22.20;66.10;;;;;;5020211;28;43923;-59
2022/09/13 06:26:26;;;;;;;0.70;0.70;;;22.20;66.10;;;;;;5023321;28;43388;-59
2022/09/13 06:28:56;;;;;;;1.27;0.68;;;22.20;66.00;;;;;;5022265;28;43451;-59
2022/09/13 06:31:26;;;;;;;1.20;0.97;;;22.20;66.00;;;;;;5022751;28;43529;-59
2022/09/13 06:33:56;;;;;;;1.45;0.80;;;22.20;66.10;;;;;;5022023;28;44959;-59
2022/09/13 06:36:24;;;;;;;0.90;0.70;;;22.30;66.20;;;;;;5022312;28;43450;-59
2022/09/13 06:38:52;;;;;;;0.63;0.63;;;22.30;66.20;;;;;;5022893;28;43423;-59
2022/09/13 06:41:22;;;;;;;0.70;0.70;;;22.20;66.10;;;;;;5022028;28;43442;-59
2022/09/13 06:43:58;;;;;;;0.98;0.85;;;22.30;66.20;;;;;;5018025;28;45302;-59
2022/09/13 06:46:28;;;;;;;1.55;0.88;;;22.30;66.20;;;;;;5023491;28;43553;-60
2022/09/13 06:49:00;;;;;;;1.20;0.70;;;22.20;66.20;;;;;;5023735;28;43406;-59
2022/09/13 06:51:28;;;;;;;0.75;0.70;;;22.30;66.20;;;;;;5023185;28;43709;-58
2022/09/13 06:53:56;;;;;;;1.23;0.70;;;22.20;66.10;;;;;;5022590;28;43883;-59
2022/09/13 06:56:31;;;;;;;1.20;0.75;;;22.20;66.20;;;;;;5022680;28;43779;-58
2022/09/13 06:59:03;;;;;;;0.60;0.60;;;22.30;66.20;;;;;;5024318;28;43388;-58
2022/09/13 07:01:36;;;;;;;0.85;0.70;;;22.20;66.20;;;;;;5023363;28;43500;-58
2022/09/13 07:04:06;;;;;;;2.80;0.80;;;22.20;66.20;;;;;;5022586;28;45044;-58
2022/09/13 07:06:36;;;;;;;1.88;0.73;;;22.20;66.20;;;;;;5022439;28;43487;-58
2022/09/13 07:09:07;;;;;;;1.13;0.70;;;22.20;66.20;;;;;;5023184;28;43420;-59
2022/09/13 07:11:37;;;;;;;0.70;0.63;;;22.20;66.20;;;;;;5022072;28;43408;-58
2022/09/13 07:14:06;;;;;;;1.30;0.70;;;22.20;66.00;;;;;;5022990;28;43821;-58
2022/09/13 07:16:36;;;;;;;1.40;0.70;;;22.20;66.00;;;;;;5022090;28;43786;-59
2022/09/13 07:19:11;;;;;;;1.00;0.73;;;22.20;66.10;;;;;;5022698;28;43443;-59
2022/09/13 07:21:39;;;;;;;0.70;0.65;;;22.20;66.10;;;;;;5023050;28;43416;-59
2022/09/13 07:24:07;;;;;;;0.50;0.50;;;22.20;66.10;;;;;;5023081;28;43784;-58
2022/09/13 07:26:35;;;;;;;0.88;0.70;;;22.30;66.10;;;;;;5020607;28;43455;-59
2022/09/13 07:29:06;;;;;;;2.28;0.90;;;22.20;66.70;;;;;;5022987;28;44035;-59
2022/09/13 07:31:36;;;;;;;0.98;0.80;;;22.20;66.10;;;;;;5022943;28;43436;-59
2022/09/13 07:34:07;;;;;;;0.95;0.80;;;22.20;66.10;;;;;;5022152;28;43855;-58
2022/09/13 07:36:35;;;;;;;1.05;0.82;;;22.20;66.20;;;;;;5022250;28;43415;-58
2022/09/13 07:39:04;;;;;;;1.80;0.93;;;22.20;66.20;;;;;;5021729;28;43407;-58
2022/09/13 07:41:32;;;;;;;0.52;0.52;;;22.20;66.20;;;;;;5021984;28;43511;-58
2022/09/13 07:44:00;;;;;;;2.00;0.90;;;22.20;66.20;;;;;;5021203;28;44777;-59
2022/09/13 07:46:31;;;;;;;1.10;0.55;;;22.20;66.20;;;;;;5022462;28;43431;-59
2022/09/13 07:49:00;;;;;;;1.65;0.80;;;22.10;66.20;;;;;;5022053;28;43585;-59
2022/09/13 07:51:29;;;;;;;1.10;0.80;;;22.10;66.20;;;;;;5022984;28;43435;-58
2022/09/13 07:54:00;;;;;;;1.27;0.80;;;22.20;66.20;;;;;;5021013;28;44034;-59
2022/09/13 07:56:35;;;;;;;1.00;0.70;;;22.10;66.70;;;;;;5022370;28;43434;-61
2022/09/13 07:59:06;;;;;;;0.80;0.80;;;22.20;66.10;;;;;;5023904;28;43494;-60
2022/09/13 08:01:34;;;;;;;2.33;1.00;;;22.20;66.20;;;;;;5021762;28;43548;-60
2022/09/13 08:04:05;;;;;;;1.00;0.90;;;22.20;66.10;;;;;;5022570;28;44941;-59
2022/09/13 08:06:34;;;;;;;1.25;0.90;;;22.20;66.00;;;;;;5022018;28;43496;-59
2022/09/13 08:09:02;;;;;;;0.90;0.60;;;22.20;66.00;;;;;;5021744;28;43482;-58
2022/09/13 08:11:30;;;;;;;1.70;0.88;;;22.20;66.10;;;;;;5022346;28;43435;-58
2022/09/13 08:13:59;;;;;;;1.35;0.88;;;22.10;66.00;;;;;;5022168;28;45149;-58
2022/09/13 08:16:28;;;;;;;2.20;1.10;;;22.20;66.10;;;;;;5021534;28;43493;-58
2022/09/13 08:18:59;;;;;;;1.40;0.60;;;22.20;66.10;;;;;;5018428;28;43607;-58
2022/09/13 08:21:30;;;;;;;1.27;0.80;;;22.20;66.00;;;;;;5022262;28;43505;-58
2022/09/13 08:23:59;;;;;;;1.08;0.77;;;22.20;66.00;;;;;;5018645;28;43568;-58
2022/09/13 08:26:28;;;;;;;1.88;1.02;;;22.20;66.00;;;;;;5022098;28;43454;-59
2022/09/13 08:29:00;;;;;;;0.75;0.70;;;22.20;66.00;;;;;;5021492;28;43455;-58
2022/09/13 08:31:28;;;;;;;0.70;0.68;;;22.20;66.00;;;;;;5020914;28;43504;-59
2022/09/13 08:33:56;;;;;;;0.80;0.80;;;22.20;66.00;;;;;;5021707;28;43752;-59
2022/09/13 08:36:25;;;;;;;1.52;0.82;;;22.20;66.00;;;;;;5021356;28;43440;-59
2022/09/13 08:38:59;;;;;;;0.93;0.60;;;22.20;66.00;;;;;;5021891;28;43445;-58
2022/09/13 08:41:43;;;;;;;0.80;0.73;;;22.20;66.00;;;;;;5022102;28;43375;-59
2022/09/13 08:44:34;;;;;;;1.48;0.77;;;22.20;66.00;;;;;;5021161;28;44939;-59
2022/09/13 08:47:39;;;;;;;0.68;0.60;;;22.20;65.90;;;;;;5021938;28;43607;-58
2022/09/13 08:50:29;;;;;;;1.08;0.70;;;22.20;66.10;;;;;;5021032;28;43525;-58
2022/09/13 08:53:25;;;;;;;1.55;0.63;;;22.20;65.90;;;;;;5018025;28;43456;-58
2022/09/13 08:56:06;;;;;;;1.33;1.00;;;22.20;66.00;;;;;;5020822;28;44158;-59
2022/09/13 08:59:05;;;;;;;0.68;0.68;;;22.20;66.00;;;;;;5019975;28;43474;-58
2022/09/13 09:01:46;;;;;;;1.20;0.77;;;22.20;65.90;;;;;;5017735;28;43376;-59
2022/09/13 09:04:40;;;;;;;1.35;0.90;;;22.20;65.90;;;;;;5015377;28;43495;-59
2022/09/13 09:07:14;;;;;;;1.20;0.95;;;22.20;65.90;;;;;;5023072;28;43876;-58
2022/09/13 09:09:52;;;;;;;1.52;0.90;;;22.20;66.00;;;;;;5025124;28;43542;-58
2022/09/13 09:12:31;;;;;;;1.02;0.68;;;22.20;66.00;;;;;;5024516;28;43457;-58
2022/09/13 09:15:25;;;;;;;1.73;0.80;;;22.20;66.00;;;;;;5024577;28;43506;-59
2022/09/13 09:18:13;;;;;;;2.03;1.00;;;22.20;66.00;;;;;;5012660;28;43664;-58
2022/09/13 09:20:45;;;;;;;1.50;0.70;;;22.20;66.00;;;;;;5022269;28;43529;-59
2022/09/13 09:23:17;;;;;;;2.05;0.85;;;22.30;66.10;;;;;;5025285;28;43479;-59
2022/09/13 09:25:52;;;;;;;1.85;0.80;;;22.30;66.10;;;;;;5023684;28;43471;-59
2022/09/13 09:28:19;;;;;;;1.63;0.90;;;22.30;66.10;;;;;;5024841;28;45054;-59
2022/09/13 09:31:07;;;;;;;1.30;0.90;;;22.20;66.00;;;;;;5024571;28;43397;-59
2022/09/13 09:33:41;;;;;;;2.83;0.65;;;22.30;66.10;;;;;;5024158;28;43510;-59
2022/09/13 09:36:38;;;;;;;2.50;0.80;;;22.20;66.10;;;;;;5024653;28;43606;-59
2022/09/13 09:39:15;;;;;;;0.98;0.52;;;22.30;65.90;;;;;;5024510;28;43809;-58
2022/09/13 09:41:43;;;;;;;1.33;0.73;;;22.30;66.00;;;;;;5024133;28;44066;-58
2022/09/13 09:44:27;;;;;;;0.75;0.60;;;22.30;66.00;;;;;;5024615;28;43376;-58
2022/09/13 09:47:15;;;;;;;1.00;0.50;;;22.30;66.00;;;;;;5022970;28;43393;-58
2022/09/13 09:50:08;;;;;;;0.90;0.70;;;22.30;65.90;;;;;;5020217;28;44017;-59
2022/09/13 09:52:56;;;;;;;0.93;0.52;;;22.30;66.00;;;;;;5023922;28;43447;-58
2022/09/13 09:55:36;;;;;;;2.28;0.80;;;22.30;66.00;;;;;;5023754;28;43397;-58
2022/09/13 09:58:07;;;;;;;1.20;0.77;;;22.30;65.90;;;;;;5025664;28;43522;-58
2022/09/13 10:00:38;;;;;;;2.05;0.65;;;22.30;65.80;;;;;;5021660;28;43575;-58
2022/09/13 10:03:15;;;;;;;1.70;0.77;;;22.30;65.80;;;;;;5023875;28;43444;-58
2022/09/13 10:05:44;;;;;;;2.28;0.90;;;22.40;65.80;;;;;;5023743;28;43462;-59
2022/09/13 10:08:33;;;;;;;0.82;0.57;;;22.40;65.70;;;;;;5020532;28;43558;-58
2022/09/13 10:11:01;;;;;;;1.95;0.57;;;22.40;65.60;;;;;;5021335;28;44977;-57
2022/09/13 10:13:31;;;;;;;2.17;0.63;;;22.40;65.70;;;;;;5023361;28;43950;-58
2022/09/13 10:16:04;;;;;;;1.15;0.80;;;22.40;65.70;;;;;;5023248;28;43462;-58
2022/09/13 10:18:36;;;;;;;1.10;0.77;;;22.40;65.60;;;;;;5023411;28;43372;-59
2022/09/13 10:21:16;;;;;;;1.27;0.70;;;22.40;65.60;;;;;;5023836;28;44891;-58
2022/09/13 10:23:46;;;;;;;0.82;0.60;;;22.40;65.60;;;;;;5022894;28;43885;-58
2022/09/13 10:26:17;;;;;;;1.50;1.05;;;22.40;65.60;;;;;;5023625;28;43423;-58
2022/09/13 10:28:59;;;;;;;1.35;0.68;;;22.40;65.50;;;;;;5017239;28;43383;-58
2022/09/13 10:31:35;;;;;;;0.80;0.70;;;22.50;65.60;;;;;;5023673;28;43812;-58
2022/09/13 10:34:13;;;;;;;0.75;0.50;;;22.40;65.40;;;;;;5023462;28;43475;-58
2022/09/13 10:37:16;;;;;;;1.33;0.63;;;22.50;65.50;;;;;;5018513;28;43470;-58
2022/09/13 10:40:02;;;;;;;0.63;0.60;;;22.50;65.40;;;;;;5023551;28;44124;-59
2022/09/13 10:42:30;;;;;;;2.05;0.63;;;22.50;65.40;;;;;;5022505;28;43788;-58
2022/09/13 10:45:06;;;;;;;1.65;0.68;;;22.50;65.40;;;;;;5023492;28;43972;-58
2022/09/13 10:47:47;;;;;;;2.35;0.80;;;22.50;65.40;;;;;;5023805;28;43351;-58
2022/09/13 10:50:19;;;;;;;1.40;0.75;;;22.50;65.40;;;;;;5022484;28;44043;-58
2022/09/13 10:52:49;;;;;;;1.38;0.80;;;22.50;65.30;;;;;;5022897;28;44700;-58
2022/09/13 10:55:20;;;;;;;1.20;0.77;;;22.60;65.30;;;;;;5023653;28;43358;-59
2022/09/13 10:57:51;;;;;;;0.60;0.60;;;22.60;65.00;;;;;;5024187;28;43569;-59
2022/09/13 11:00:43;;;;;;;1.30;0.65;;;22.60;65.10;;;;;;5022946;28;43442;-58
2022/09/13 11:03:39;;;;;;;2.25;0.95;;;22.60;65.20;;;;;;4995570;28;43804;-59
2022/09/13 11:06:20;;;;;;;1.27;0.80;;;22.60;65.10;;;;;;5021831;28;43967;-58
2022/09/13 11:08:50;;;;;;;1.65;0.95;;;22.60;65.10;;;;;;5022981;28;43468;-58
2022/09/13 11:11:33;;;;;;;2.70;0.80;;;22.60;65.10;;;;;;5022873;28;43376;-58
2022/09/13 11:14:19;;;;;;;1.45;0.80;;;22.60;65.00;;;;;;5023104;28;45112;-58
2022/09/13 11:17:18;;;;;;;2.33;0.95;;;22.70;65.20;;;;;;5022674;28;43331;-58
2022/09/13 11:20:20;;;;;;;2.08;0.90;;;22.70;65.00;;;;;;5021471;28;43419;-58
2022/09/13 11:23:09;;;;;;;2.78;0.90;;;22.70;65.00;;;;;;5022639;28;43438;-59
2022/09/13 11:26:07;;;;;;;1.60;0.85;;;22.70;65.00;;;;;;5021941;28;44759;-59
2022/09/13 11:28:47;;;;;;;1.50;0.90;;;22.70;65.00;;;;;;5022422;28;43388;-58
2022/09/13 11:31:18;;;;;;;1.00;0.83;;;22.70;64.90;;;;;;5022741;28;43583;-58
2022/09/13 11:34:00;;;;;;;;;;;22.70;64.90;;;;;;5022519;28;43534;-59
2022/09/13 11:36:57;;;;;;;3.95;1.13;;;22.80;65.00;;;;;;5022692;28;43997;-59
2022/09/13 11:39:31;;;;;;;1.33;0.70;;;22.70;64.90;;;;;;5022154;28;43395;-58
2022/09/13 11:42:07;;;;;;;1.60;0.90;;;22.80;64.90;;;;;;5022517;28;43452;-59
2022/09/13 11:45:31;;;;;;;1.40;0.80;;;22.80;64.90;;;;;;5022382;28;43460;-59
2022/09/13 11:48:08;;;;;;;1.45;0.70;;;22.80;64.80;;;;;;4994619;28;44717;-58
2022/09/13 11:50:56;;;;;;;1.92;1.00;;;22.80;64.80;;;;;;5019552;28;43979;-58
2022/09/13 11:53:35;;;;;;;1.80;0.98;;;22.80;64.60;;;;;;5054011;28;43563;-58
2022/09/13 11:56:09;;;;;;;2.78;0.98;;;22.80;64.70;;;;;;5016922;28;43460;-58
2022/09/13 11:58:46;;;;;;;1.77;0.80;;;22.90;65.40;;;;;;5024212;28;45198;-59
2022/09/13 12:01:37;;;;;;;1.70;0.90;;;22.90;64.70;;;;;;5019107;28;43360;-58
2022/09/13 12:04:17;;;;;;;0.88;0.80;;;23.00;64.70;;;;;;5022239;28;43464;-58
2022/09/13 12:06:52;;;;;;;2.25;0.90;;;22.90;64.60;;;;;;5021664;28;43521;-58
2022/09/13 12:09:28;;;;;;;1.73;1.02;;;23.00;64.60;;;;;;5054446;28;44127;-58
2022/09/13 12:12:12;;;;;;;1.55;0.82;;;23.00;64.50;;;;;;5019100;28;43443;-58
2022/09/13 12:14:46;;;;;;;1.70;0.80;;;23.00;64.50;;;;;;5020100;28;43413;-58
2022/09/13 12:17:44;;;;;;;1.35;0.85;;;23.10;64.50;;;;;;5022471;28;43514;-58
2022/09/13 12:20:23;;;;;;;2.45;1.00;;;23.10;64.40;;;;;;5021944;28;44786;-58
2022/09/13 12:22:53;;;;;;;1.65;0.82;;;23.10;64.40;;;;;;5009572;28;43526;-58
2022/09/13 12:25:27;;;;;;;1.42;0.90;;;23.10;64.30;;;;;;5022646;28;43489;-58
2022/09/13 12:28:04;;;;;;;1.80;0.82;;;23.10;64.30;;;;;;5022669;28;43412;-58
2022/09/13 12:30:54;;;;;;;1.52;0.90;;;23.20;64.40;;;;;;5022299;28;43868;-58
2022/09/13 12:33:22;;;;;;;0.97;0.80;;;23.20;64.20;;;;;;5022167;28;43447;-58
2022/09/13 12:36:24;;;;;;;1.83;0.75;;;23.20;64.20;;;;;;5021093;28;43480;-58
2022/09/13 12:39:25;;;;;;;1.23;0.90;;;23.20;64.20;;;;;;5009032;28;43420;-58
2022/09/13 12:42:30;;;;;;;1.85;0.70;;;23.20;64.10;;;;;;5025320;28;45379;-58
2022/09/13 12:45:25;;;;;;;1.70;0.77;;;23.30;64.20;;;;;;5025894;28;43409;-59
2022/09/13 12:48:18;;;;;;;0.90;0.68;;;23.30;64.20;;;;;;5028032;28;43437;-58
2022/09/13 12:50:57;;;;;;;1.27;0.70;;;23.30;64.10;;;;;;5027374;28;43408;-58
2022/09/13 12:53:42;;;;;;;1.77;0.85;;;23.30;64.20;;;;;;5061045;28;43918;-58
2022/09/13 12:56:55;;;;;;;2.13;1.00;;;23.30;64.10;;;;;;5027169;28;43435;-58
2022/09/13 12:59:57;;;;;;;1.70;0.80;;;23.30;64.10;;;;;;5031396;28;43424;-58
2022/09/13 13:02:24;;;;;;;;;;;23.30;64.10;;;;;;5022888;28;43427;-58
2022/09/13 13:04:57;;;;;;;2.95;0.80;;;23.30;64.20;;;;;;5027342;28;44664;-59
2022/09/13 13:07:25;;;;;;;1.38;0.70;;;23.30;64.30;;;;;;5028486;28;43778;-58
2022/09/13 13:09:55;;;;;;;1.85;0.77;;;23.30;64.30;;;;;;5048946;28;43492;-59
2022/09/13 13:12:31;;;;;;;1.55;1.10;;;23.30;64.30;;;;;;5027808;28;43450;-58
2022/09/13 13:15:16;;;;;;;2.25;0.90;;;23.40;64.30;;;;;;5028174;28;44693;-58
2022/09/13 13:17:50;;;;;;;1.25;0.90;;;23.40;64.20;;;;;;5027231;28;43439;-59
2022/09/13 13:20:45;;;;;;;1.95;0.88;;;23.40;64.90;;;;;;5027993;28;43412;-58
2022/09/13 13:23:37;;;;;;;1.25;0.73;;;23.40;64.20;;;;;;5028453;28;43484;-58
2022/09/13 13:26:20;;;;;;;2.45;0.90;;;23.40;64.10;;;;;;5015686;28;43809;-58
2022/09/13 13:28:50;;;;;;;2.08;0.90;;;23.40;64.10;;;;;;5027964;28;43486;-58
2022/09/13 13:31:26;;;;;;;2.53;0.80;;;23.40;64.20;;;;;;5026607;28;43518;-58
2022/09/13 13:33:58;;;;;;;1.00;0.68;;;23.40;64.20;;;;;;5027698;28;43558;-58